sensor_id;sensor_type;location;lat;lon;timestamp;P1;durP1;ratioP1;P2;durP2;ratioP2
10711;SDS011;5407;51.234;6.804;2023-07-31T00:01:43;6.73;;;4.00;;
10711;SDS011;5407;51.234;6.804;2023-07-31T00:04:10;8.03;;;4.23;;
10711;SDS011;5407;51.234;6.804;2023-07-31T00:06:37;11.27;;;4.43;;
10711;SDS011;5407;51.234;6.804;2023-07-31T00:09:04;10.47;;;4.10;;
10711;SDS011;5407;51.234;6.804;2023-07-31T00:11:31;11.43;;;4.50;;
10711;SDS011;5407;51.234;6.804;2023-07-31T00:14:00;15.20;;;4.80;;
10711;SDS011;5407;51.234;6.804;2023-07-31T00:16:27;12.20;;;4.50;;
10711;SDS011;5407;51.234;6.804;2023-07-31T00:18:54;7.93;;;4.33;;
10711;SDS011;5407;51.234;6.804;2023-07-31T00:21:21;9.93;;;4.17;;
10711;SDS011;5407;51.234;6.804;2023-07-31T00:23:48;10.23;;;4.40;;
10711;SDS011;5407;51.234;6.804;2023-07-31T00:26:15;8.33;;;4.27;;
10711;SDS011;5407;51.234;6.804;2023-07-31T00:28:42;8.17;;;4.37;;
10711;SDS011;5407;51.234;6.804;2023-07-31T00:31:10;11.13;;;4.13;;
10711;SDS011;5407;51.234;6.804;2023-07-31T00:33:37;9.63;;;4.10;;
10711;SDS011;5407;51.234;6.804;2023-07-31T00:36:04;9.03;;;4.13;;
10711;SDS011;5407;51.234;6.804;2023-07-31T00:38:31;8.10;;;3.90;;
10711;SDS011;5407;51.234;6.804;2023-07-31T00:40:58;10.10;;;4.70;;
10711;SDS011;5407;51.234;6.804;2023-07-31T00:43:25;9.07;;;4.03;;
10711;SDS011;5407;51.234;6.804;2023-07-31T00:45:52;8.03;;;4.20;;
10711;SDS011;5407;51.234;6.804;2023-07-31T00:48:20;10.13;;;4.17;;
10711;SDS011;5407;51.234;6.804;2023-07-31T00:50:48;8.70;;;4.00;;
10711;SDS011;5407;51.234;6.804;2023-07-31T00:53:14;10.93;;;4.53;;
10711;SDS011;5407;51.234;6.804;2023-07-31T00:55:42;8.77;;;4.13;;
10711;SDS011;5407;51.234;6.804;2023-07-31T00:58:09;10.00;;;4.50;;
10711;SDS011;5407;51.234;6.804;2023-07-31T01:00:38;8.27;;;3.87;;
10711;SDS011;5407;51.234;6.804;2023-07-31T01:03:04;13.80;;;4.77;;
10711;SDS011;5407;51.234;6.804;2023-07-31T01:05:37;7.40;;;3.70;;
10711;SDS011;5407;51.234;6.804;2023-07-31T01:08:15;11.60;;;4.50;;
10711;SDS011;5407;51.234;6.804;2023-07-31T01:10:50;8.77;;;3.77;;
10711;SDS011;5407;51.234;6.804;2023-07-31T01:13:19;7.43;;;3.57;;
10711;SDS011;5407;51.234;6.804;2023-07-31T01:15:47;11.63;;;4.13;;
10711;SDS011;5407;51.234;6.804;2023-07-31T01:18:14;10.73;;;4.10;;
10711;SDS011;5407;51.234;6.804;2023-07-31T01:20:42;8.37;;;4.00;;
10711;SDS011;5407;51.234;6.804;2023-07-31T01:23:23;12.33;;;4.30;;
10711;SDS011;5407;51.234;6.804;2023-07-31T01:26:19;11.00;;;4.60;;
10711;SDS011;5407;51.234;6.804;2023-07-31T01:28:51;9.80;;;4.27;;
10711;SDS011;5407;51.234;6.804;2023-07-31T01:31:26;11.07;;;4.50;;
10711;SDS011;5407;51.234;6.804;2023-07-31T01:33:56;7.60;;;3.93;;
10711;SDS011;5407;51.234;6.804;2023-07-31T01:36:27;10.07;;;4.00;;
10711;SDS011;5407;51.234;6.804;2023-07-31T01:38:57;9.70;;;4.37;;
10711;SDS011;5407;51.234;6.804;2023-07-31T01:41:26;15.23;;;4.27;;
10711;SDS011;5407;51.234;6.804;2023-07-31T01:43:53;10.10;;;4.17;;
10711;SDS011;5407;51.234;6.804;2023-07-31T01:46:20;10.37;;;4.13;;
10711;SDS011;5407;51.234;6.804;2023-07-31T01:48:47;11.23;;;4.33;;
10711;SDS011;5407;51.234;6.804;2023-07-31T01:51:14;10.73;;;4.27;;
10711;SDS011;5407;51.234;6.804;2023-07-31T01:53:41;12.93;;;4.47;;
10711;SDS011;5407;51.234;6.804;2023-07-31T01:56:08;7.97;;;3.73;;
10711;SDS011;5407;51.234;6.804;2023-07-31T01:58:36;10.90;;;4.40;;
10711;SDS011;5407;51.234;6.804;2023-07-31T02:01:03;9.50;;;4.30;;
10711;SDS011;5407;51.234;6.804;2023-07-31T02:03:30;12.47;;;4.97;;
10711;SDS011;5407;51.234;6.804;2023-07-31T02:05:57;11.93;;;4.77;;
10711;SDS011;5407;51.234;6.804;2023-07-31T02:08:24;10.63;;;4.47;;
10711;SDS011;5407;51.234;6.804;2023-07-31T02:10:51;14.63;;;4.93;;
10711;SDS011;5407;51.234;6.804;2023-07-31T02:13:18;10.87;;;4.77;;
10711;SDS011;5407;51.234;6.804;2023-07-31T02:15:46;12.03;;;4.50;;
10711;SDS011;5407;51.234;6.804;2023-07-31T02:18:13;10.10;;;4.90;;
10711;SDS011;5407;51.234;6.804;2023-07-31T02:20:40;9.57;;;4.20;;
10711;SDS011;5407;51.234;6.804;2023-07-31T02:23:07;18.43;;;4.77;;
10711;SDS011;5407;51.234;6.804;2023-07-31T02:25:34;13.40;;;4.90;;
10711;SDS011;5407;51.234;6.804;2023-07-31T02:28:01;10.10;;;4.60;;
10711;SDS011;5407;51.234;6.804;2023-07-31T02:30:28;12.00;;;4.47;;
10711;SDS011;5407;51.234;6.804;2023-07-31T02:32:56;10.37;;;4.10;;
10711;SDS011;5407;51.234;6.804;2023-07-31T02:35:23;12.63;;;4.57;;
10711;SDS011;5407;51.234;6.804;2023-07-31T02:37:50;10.47;;;4.47;;
10711;SDS011;5407;51.234;6.804;2023-07-31T02:40:17;11.63;;;4.00;;
10711;SDS011;5407;51.234;6.804;2023-07-31T02:42:44;9.57;;;4.20;;
10711;SDS011;5407;51.234;6.804;2023-07-31T02:45:11;12.07;;;4.80;;
10711;SDS011;5407;51.234;6.804;2023-07-31T02:47:38;14.50;;;4.83;;
10711;SDS011;5407;51.234;6.804;2023-07-31T02:50:06;10.53;;;4.20;;
10711;SDS011;5407;51.234;6.804;2023-07-31T02:52:34;9.07;;;4.50;;
10711;SDS011;5407;51.234;6.804;2023-07-31T02:55:00;18.93;;;4.17;;
10711;SDS011;5407;51.234;6.804;2023-07-31T02:57:27;11.50;;;4.63;;
10711;SDS011;5407;51.234;6.804;2023-07-31T02:59:54;10.90;;;4.57;;
10711;SDS011;5407;51.234;6.804;2023-07-31T03:02:21;12.80;;;4.70;;
10711;SDS011;5407;51.234;6.804;2023-07-31T03:04:48;9.20;;;3.97;;
10711;SDS011;5407;51.234;6.804;2023-07-31T03:07:16;9.17;;;4.07;;
10711;SDS011;5407;51.234;6.804;2023-07-31T03:09:43;10.37;;;4.13;;
10711;SDS011;5407;51.234;6.804;2023-07-31T03:12:10;8.63;;;3.90;;
10711;SDS011;5407;51.234;6.804;2023-07-31T03:14:37;11.23;;;4.33;;
10711;SDS011;5407;51.234;6.804;2023-07-31T03:17:03;9.03;;;4.27;;
10711;SDS011;5407;51.234;6.804;2023-07-31T03:19:31;8.73;;;4.23;;
10711;SDS011;5407;51.234;6.804;2023-07-31T03:21:58;10.00;;;4.13;;
10711;SDS011;5407;51.234;6.804;2023-07-31T03:24:26;9.53;;;4.60;;
10711;SDS011;5407;51.234;6.804;2023-07-31T03:26:55;13.27;;;4.43;;
10711;SDS011;5407;51.234;6.804;2023-07-31T03:29:22;10.87;;;4.50;;
10711;SDS011;5407;51.234;6.804;2023-07-31T03:31:48;8.57;;;4.43;;
10711;SDS011;5407;51.234;6.804;2023-07-31T03:34:15;10.93;;;4.30;;
10711;SDS011;5407;51.234;6.804;2023-07-31T03:36:43;9.90;;;4.00;;
10711;SDS011;5407;51.234;6.804;2023-07-31T03:39:10;12.60;;;4.70;;
10711;SDS011;5407;51.234;6.804;2023-07-31T03:41:38;11.57;;;4.33;;
10711;SDS011;5407;51.234;6.804;2023-07-31T03:44:05;10.67;;;4.40;;
10711;SDS011;5407;51.234;6.804;2023-07-31T03:46:32;10.87;;;4.60;;
10711;SDS011;5407;51.234;6.804;2023-07-31T03:49:01;10.27;;;4.47;;
10711;SDS011;5407;51.234;6.804;2023-07-31T03:51:28;11.60;;;4.33;;
10711;SDS011;5407;51.234;6.804;2023-07-31T03:53:54;16.50;;;4.43;;
10711;SDS011;5407;51.234;6.804;2023-07-31T03:56:21;10.83;;;4.60;;
10711;SDS011;5407;51.234;6.804;2023-07-31T03:58:50;12.93;;;4.60;;
10711;SDS011;5407;51.234;6.804;2023-07-31T04:01:17;13.27;;;4.33;;
10711;SDS011;5407;51.234;6.804;2023-07-31T04:03:44;10.20;;;4.93;;
10711;SDS011;5407;51.234;6.804;2023-07-31T04:06:11;11.77;;;4.70;;
10711;SDS011;5407;51.234;6.804;2023-07-31T04:08:38;12.73;;;4.80;;
10711;SDS011;5407;51.234;6.804;2023-07-31T04:11:05;11.13;;;4.70;;
10711;SDS011;5407;51.234;6.804;2023-07-31T04:13:32;9.80;;;4.03;;
10711;SDS011;5407;51.234;6.804;2023-07-31T04:16:00;10.90;;;5.00;;
10711;SDS011;5407;51.234;6.804;2023-07-31T04:18:27;10.40;;;4.70;;
10711;SDS011;5407;51.234;6.804;2023-07-31T04:20:56;15.30;;;4.70;;
10711;SDS011;5407;51.234;6.804;2023-07-31T04:23:23;11.17;;;4.53;;
10711;SDS011;5407;51.234;6.804;2023-07-31T04:25:50;14.50;;;4.80;;
10711;SDS011;5407;51.234;6.804;2023-07-31T04:28:17;10.57;;;4.50;;
10711;SDS011;5407;51.234;6.804;2023-07-31T04:30:44;8.87;;;4.47;;
10711;SDS011;5407;51.234;6.804;2023-07-31T04:33:12;11.67;;;4.60;;
10711;SDS011;5407;51.234;6.804;2023-07-31T04:35:39;12.73;;;4.57;;
10711;SDS011;5407;51.234;6.804;2023-07-31T04:38:06;12.33;;;5.13;;
10711;SDS011;5407;51.234;6.804;2023-07-31T04:40:33;9.00;;;4.60;;
10711;SDS011;5407;51.234;6.804;2023-07-31T04:42:59;14.63;;;4.40;;
10711;SDS011;5407;51.234;6.804;2023-07-31T04:45:26;11.23;;;4.97;;
10711;SDS011;5407;51.234;6.804;2023-07-31T04:47:53;14.13;;;5.13;;
10711;SDS011;5407;51.234;6.804;2023-07-31T04:50:21;12.50;;;4.17;;
10711;SDS011;5407;51.234;6.804;2023-07-31T04:52:48;11.53;;;4.90;;
10711;SDS011;5407;51.234;6.804;2023-07-31T04:55:15;12.70;;;4.93;;
10711;SDS011;5407;51.234;6.804;2023-07-31T04:57:42;10.50;;;4.73;;
10711;SDS011;5407;51.234;6.804;2023-07-31T05:00:08;11.37;;;5.03;;
10711;SDS011;5407;51.234;6.804;2023-07-31T05:02:35;9.17;;;4.23;;
10711;SDS011;5407;51.234;6.804;2023-07-31T05:05:02;15.27;;;4.80;;
10711;SDS011;5407;51.234;6.804;2023-07-31T05:07:31;14.40;;;4.93;;
10711;SDS011;5407;51.234;6.804;2023-07-31T05:09:58;8.47;;;4.43;;
10711;SDS011;5407;51.234;6.804;2023-07-31T05:12:25;9.80;;;4.60;;
10711;SDS011;5407;51.234;6.804;2023-07-31T05:14:51;8.63;;;4.80;;
10711;SDS011;5407;51.234;6.804;2023-07-31T05:17:18;8.10;;;4.40;;
10711;SDS011;5407;51.234;6.804;2023-07-31T05:19:45;9.30;;;4.73;;
10711;SDS011;5407;51.234;6.804;2023-07-31T05:22:12;11.93;;;4.67;;
10711;SDS011;5407;51.234;6.804;2023-07-31T05:24:40;10.60;;;4.73;;
10711;SDS011;5407;51.234;6.804;2023-07-31T05:27:07;9.57;;;4.57;;
10711;SDS011;5407;51.234;6.804;2023-07-31T05:29:34;8.47;;;4.27;;
10711;SDS011;5407;51.234;6.804;2023-07-31T05:32:01;7.80;;;4.40;;
10711;SDS011;5407;51.234;6.804;2023-07-31T05:34:28;10.40;;;4.90;;
10711;SDS011;5407;51.234;6.804;2023-07-31T05:36:55;10.90;;;5.00;;
10711;SDS011;5407;51.234;6.804;2023-07-31T05:39:22;10.00;;;4.53;;
10711;SDS011;5407;51.234;6.804;2023-07-31T05:41:50;9.37;;;4.77;;
10711;SDS011;5407;51.234;6.804;2023-07-31T05:44:17;8.63;;;4.47;;
10711;SDS011;5407;51.234;6.804;2023-07-31T05:46:44;7.97;;;4.47;;
10711;SDS011;5407;51.234;6.804;2023-07-31T05:49:11;7.97;;;4.73;;
10711;SDS011;5407;51.234;6.804;2023-07-31T05:51:38;7.97;;;4.30;;
10711;SDS011;5407;51.234;6.804;2023-07-31T05:54:04;8.27;;;4.77;;
10711;SDS011;5407;51.234;6.804;2023-07-31T05:56:31;7.87;;;4.47;;
10711;SDS011;5407;51.234;6.804;2023-07-31T05:59:00;10.83;;;4.17;;
10711;SDS011;5407;51.234;6.804;2023-07-31T06:01:28;8.37;;;4.47;;
10711;SDS011;5407;51.234;6.804;2023-07-31T06:03:55;6.57;;;4.23;;
10711;SDS011;5407;51.234;6.804;2023-07-31T06:06:21;7.93;;;4.80;;
10711;SDS011;5407;51.234;6.804;2023-07-31T06:08:48;8.67;;;4.57;;
10711;SDS011;5407;51.234;6.804;2023-07-31T06:11:16;11.67;;;4.90;;
10711;SDS011;5407;51.234;6.804;2023-07-31T06:13:43;7.87;;;4.57;;
10711;SDS011;5407;51.234;6.804;2023-07-31T06:16:13;7.83;;;4.43;;
10711;SDS011;5407;51.234;6.804;2023-07-31T06:18:40;7.40;;;4.23;;
10711;SDS011;5407;51.234;6.804;2023-07-31T06:21:07;11.47;;;4.60;;
10711;SDS011;5407;51.234;6.804;2023-07-31T06:23:34;9.90;;;4.40;;
10711;SDS011;5407;51.234;6.804;2023-07-31T06:26:01;7.50;;;4.40;;
10711;SDS011;5407;51.234;6.804;2023-07-31T06:28:28;11.23;;;4.20;;
10711;SDS011;5407;51.234;6.804;2023-07-31T06:30:55;9.07;;;4.53;;
10711;SDS011;5407;51.234;6.804;2023-07-31T06:33:24;9.03;;;4.83;;
10711;SDS011;5407;51.234;6.804;2023-07-31T06:35:51;10.20;;;4.40;;
10711;SDS011;5407;51.234;6.804;2023-07-31T06:38:18;9.20;;;4.50;;
10711;SDS011;5407;51.234;6.804;2023-07-31T06:40:48;8.37;;;4.40;;
10711;SDS011;5407;51.234;6.804;2023-07-31T06:43:15;7.17;;;4.47;;
10711;SDS011;5407;51.234;6.804;2023-07-31T06:45:42;10.83;;;4.80;;
10711;SDS011;5407;51.234;6.804;2023-07-31T06:48:09;8.77;;;4.63;;
10711;SDS011;5407;51.234;6.804;2023-07-31T06:50:37;9.20;;;4.30;;
10711;SDS011;5407;51.234;6.804;2023-07-31T06:53:04;9.20;;;4.20;;
10711;SDS011;5407;51.234;6.804;2023-07-31T06:55:31;6.10;;;3.90;;
10711;SDS011;5407;51.234;6.804;2023-07-31T06:57:58;10.20;;;4.00;;
10711;SDS011;5407;51.234;6.804;2023-07-31T07:00:25;7.03;;;4.50;;
10711;SDS011;5407;51.234;6.804;2023-07-31T07:02:52;7.83;;;4.00;;
10711;SDS011;5407;51.234;6.804;2023-07-31T07:05:19;7.27;;;4.33;;
10711;SDS011;5407;51.234;6.804;2023-07-31T07:07:48;8.37;;;3.97;;
10711;SDS011;5407;51.234;6.804;2023-07-31T07:10:15;9.73;;;4.43;;
10711;SDS011;5407;51.234;6.804;2023-07-31T07:12:42;11.27;;;4.73;;
10711;SDS011;5407;51.234;6.804;2023-07-31T07:15:09;8.63;;;4.40;;
10711;SDS011;5407;51.234;6.804;2023-07-31T07:17:36;8.97;;;4.00;;
10711;SDS011;5407;51.234;6.804;2023-07-31T07:20:03;7.90;;;4.20;;
10711;SDS011;5407;51.234;6.804;2023-07-31T07:22:31;9.80;;;4.03;;
10711;SDS011;5407;51.234;6.804;2023-07-31T07:24:59;8.70;;;3.87;;
10711;SDS011;5407;51.234;6.804;2023-07-31T07:27:26;8.83;;;4.50;;
10711;SDS011;5407;51.234;6.804;2023-07-31T07:29:54;7.80;;;4.00;;
10711;SDS011;5407;51.234;6.804;2023-07-31T07:32:21;9.80;;;4.80;;
10711;SDS011;5407;51.234;6.804;2023-07-31T07:34:48;10.70;;;4.63;;
10711;SDS011;5407;51.234;6.804;2023-07-31T07:37:15;10.90;;;4.47;;
10711;SDS011;5407;51.234;6.804;2023-07-31T07:39:42;8.93;;;4.20;;
10711;SDS011;5407;51.234;6.804;2023-07-31T07:42:11;8.40;;;4.07;;
10711;SDS011;5407;51.234;6.804;2023-07-31T07:44:37;9.37;;;4.43;;
10711;SDS011;5407;51.234;6.804;2023-07-31T07:47:04;7.63;;;4.27;;
10711;SDS011;5407;51.234;6.804;2023-07-31T07:49:32;8.27;;;3.90;;
10711;SDS011;5407;51.234;6.804;2023-07-31T07:51:59;9.90;;;4.53;;
10711;SDS011;5407;51.234;6.804;2023-07-31T07:54:26;7.03;;;4.20;;
10711;SDS011;5407;51.234;6.804;2023-07-31T07:56:53;7.37;;;4.33;;
10711;SDS011;5407;51.234;6.804;2023-07-31T07:59:21;9.13;;;4.17;;
10711;SDS011;5407;51.234;6.804;2023-07-31T08:01:48;8.20;;;4.23;;
10711;SDS011;5407;51.234;6.804;2023-07-31T08:04:15;11.40;;;4.73;;
10711;SDS011;5407;51.234;6.804;2023-07-31T08:06:42;10.67;;;4.47;;
10711;SDS011;5407;51.234;6.804;2023-07-31T08:09:09;10.27;;;4.30;;
10711;SDS011;5407;51.234;6.804;2023-07-31T08:11:36;7.70;;;4.40;;
10711;SDS011;5407;51.234;6.804;2023-07-31T08:14:02;8.67;;;4.10;;
10711;SDS011;5407;51.234;6.804;2023-07-31T08:16:31;8.20;;;4.30;;
10711;SDS011;5407;51.234;6.804;2023-07-31T08:18:58;5.27;;;3.80;;
10711;SDS011;5407;51.234;6.804;2023-07-31T08:21:24;8.13;;;3.60;;
10711;SDS011;5407;51.234;6.804;2023-07-31T08:23:51;5.77;;;3.43;;
10711;SDS011;5407;51.234;6.804;2023-07-31T08:26:18;5.90;;;3.50;;
10711;SDS011;5407;51.234;6.804;2023-07-31T08:28:47;7.53;;;4.20;;
10711;SDS011;5407;51.234;6.804;2023-07-31T08:31:14;10.57;;;3.87;;
10711;SDS011;5407;51.234;6.804;2023-07-31T08:33:42;6.10;;;3.73;;
10711;SDS011;5407;51.234;6.804;2023-07-31T08:36:09;6.30;;;3.63;;
10711;SDS011;5407;51.234;6.804;2023-07-31T08:38:36;7.43;;;3.90;;
10711;SDS011;5407;51.234;6.804;2023-07-31T08:41:03;7.10;;;3.53;;
10711;SDS011;5407;51.234;6.804;2023-07-31T08:43:30;6.57;;;3.80;;
10711;SDS011;5407;51.234;6.804;2023-07-31T08:45:58;6.70;;;4.10;;
10711;SDS011;5407;51.234;6.804;2023-07-31T08:48:26;6.70;;;3.60;;
10711;SDS011;5407;51.234;6.804;2023-07-31T08:50:57;6.10;;;3.60;;
10711;SDS011;5407;51.234;6.804;2023-07-31T08:53:23;6.07;;;4.17;;
10711;SDS011;5407;51.234;6.804;2023-07-31T08:55:51;5.63;;;3.23;;
10711;SDS011;5407;51.234;6.804;2023-07-31T08:58:19;7.90;;;3.83;;
10711;SDS011;5407;51.234;6.804;2023-07-31T09:00:47;7.80;;;4.03;;
10711;SDS011;5407;51.234;6.804;2023-07-31T09:03:17;7.97;;;4.10;;
10711;SDS011;5407;51.234;6.804;2023-07-31T09:05:46;9.70;;;3.57;;
10711;SDS011;5407;51.234;6.804;2023-07-31T09:08:17;6.93;;;3.60;;
10711;SDS011;5407;51.234;6.804;2023-07-31T09:10:46;7.40;;;3.83;;
10711;SDS011;5407;51.234;6.804;2023-07-31T09:13:13;8.47;;;3.43;;
10711;SDS011;5407;51.234;6.804;2023-07-31T09:15:40;6.80;;;3.83;;
10711;SDS011;5407;51.234;6.804;2023-07-31T09:18:09;7.33;;;3.90;;
10711;SDS011;5407;51.234;6.804;2023-07-31T09:20:36;7.67;;;4.20;;
10711;SDS011;5407;51.234;6.804;2023-07-31T09:23:07;6.50;;;3.97;;
10711;SDS011;5407;51.234;6.804;2023-07-31T09:25:36;6.27;;;3.47;;
10711;SDS011;5407;51.234;6.804;2023-07-31T09:28:05;6.00;;;4.40;;
10711;SDS011;5407;51.234;6.804;2023-07-31T09:30:44;6.30;;;3.73;;
10711;SDS011;5407;51.234;6.804;2023-07-31T09:33:13;5.90;;;3.40;;
10711;SDS011;5407;51.234;6.804;2023-07-31T09:35:40;5.03;;;3.37;;
10711;SDS011;5407;51.234;6.804;2023-07-31T09:38:08;6.00;;;3.70;;
10711;SDS011;5407;51.234;6.804;2023-07-31T09:40:38;7.27;;;3.83;;
10711;SDS011;5407;51.234;6.804;2023-07-31T09:43:06;35.10;;;25.97;;
10711;SDS011;5407;51.234;6.804;2023-07-31T09:45:35;7.00;;;4.07;;
10711;SDS011;5407;51.234;6.804;2023-07-31T09:48:03;5.93;;;3.53;;
10711;SDS011;5407;51.234;6.804;2023-07-31T09:50:34;6.97;;;3.60;;
10711;SDS011;5407;51.234;6.804;2023-07-31T09:53:03;5.23;;;3.50;;
10711;SDS011;5407;51.234;6.804;2023-07-31T09:55:30;8.60;;;4.00;;
10711;SDS011;5407;51.234;6.804;2023-07-31T09:57:59;6.87;;;4.77;;
10711;SDS011;5407;51.234;6.804;2023-07-31T10:00:31;5.90;;;3.30;;
10711;SDS011;5407;51.234;6.804;2023-07-31T10:02:58;5.83;;;3.50;;
10711;SDS011;5407;51.234;6.804;2023-07-31T10:05:28;5.50;;;3.30;;
10711;SDS011;5407;51.234;6.804;2023-07-31T10:07:58;5.53;;;3.17;;
10711;SDS011;5407;51.234;6.804;2023-07-31T10:10:25;5.67;;;3.10;;
10711;SDS011;5407;51.234;6.804;2023-07-31T10:12:53;7.03;;;3.67;;
10711;SDS011;5407;51.234;6.804;2023-07-31T10:15:23;6.07;;;3.60;;
10711;SDS011;5407;51.234;6.804;2023-07-31T10:17:52;5.63;;;3.40;;
10711;SDS011;5407;51.234;6.804;2023-07-31T10:20:20;5.03;;;3.13;;
10711;SDS011;5407;51.234;6.804;2023-07-31T10:22:48;8.23;;;3.73;;
10711;SDS011;5407;51.234;6.804;2023-07-31T10:25:15;5.33;;;3.57;;
10711;SDS011;5407;51.234;6.804;2023-07-31T10:27:42;4.97;;;3.03;;
10711;SDS011;5407;51.234;6.804;2023-07-31T10:30:11;7.27;;;3.53;;
10711;SDS011;5407;51.234;6.804;2023-07-31T10:32:42;5.30;;;3.57;;
10711;SDS011;5407;51.234;6.804;2023-07-31T10:35:11;6.93;;;3.40;;
10711;SDS011;5407;51.234;6.804;2023-07-31T10:37:39;8.57;;;3.60;;
10711;SDS011;5407;51.234;6.804;2023-07-31T10:40:10;5.97;;;3.40;;
10711;SDS011;5407;51.234;6.804;2023-07-31T10:42:45;7.37;;;3.60;;
10711;SDS011;5407;51.234;6.804;2023-07-31T10:45:14;6.73;;;3.30;;
10711;SDS011;5407;51.234;6.804;2023-07-31T10:47:57;6.40;;;3.30;;
10711;SDS011;5407;51.234;6.804;2023-07-31T10:50:27;6.83;;;3.50;;
10711;SDS011;5407;51.234;6.804;2023-07-31T10:52:58;6.77;;;3.50;;
10711;SDS011;5407;51.234;6.804;2023-07-31T10:55:27;6.27;;;3.00;;
10711;SDS011;5407;51.234;6.804;2023-07-31T10:57:56;5.33;;;3.20;;
10711;SDS011;5407;51.234;6.804;2023-07-31T11:00:25;4.43;;;3.07;;
10711;SDS011;5407;51.234;6.804;2023-07-31T11:02:59;5.50;;;2.90;;
10711;SDS011;5407;51.234;6.804;2023-07-31T11:05:41;9.70;;;3.37;;
10711;SDS011;5407;51.234;6.804;2023-07-31T11:08:13;5.77;;;2.77;;
10711;SDS011;5407;51.234;6.804;2023-07-31T11:10:41;6.43;;;2.90;;
10711;SDS011;5407;51.234;6.804;2023-07-31T11:13:09;5.60;;;2.50;;
10711;SDS011;5407;51.234;6.804;2023-07-31T11:15:36;4.03;;;2.43;;
10711;SDS011;5407;51.234;6.804;2023-07-31T11:18:04;4.40;;;2.70;;
10711;SDS011;5407;51.234;6.804;2023-07-31T11:20:33;4.33;;;2.30;;
10711;SDS011;5407;51.234;6.804;2023-07-31T11:23:02;3.73;;;2.37;;
10711;SDS011;5407;51.234;6.804;2023-07-31T11:25:30;6.27;;;2.53;;
10711;SDS011;5407;51.234;6.804;2023-07-31T11:27:57;4.07;;;2.17;;
10711;SDS011;5407;51.234;6.804;2023-07-31T11:30:28;3.13;;;2.50;;
10711;SDS011;5407;51.234;6.804;2023-07-31T11:32:55;3.87;;;2.20;;
10711;SDS011;5407;51.234;6.804;2023-07-31T11:35:23;3.97;;;2.13;;
10711;SDS011;5407;51.234;6.804;2023-07-31T11:37:50;2.30;;;1.90;;
10711;SDS011;5407;51.234;6.804;2023-07-31T11:40:18;3.03;;;1.90;;
10711;SDS011;5407;51.234;6.804;2023-07-31T11:42:45;4.10;;;1.97;;
10711;SDS011;5407;51.234;6.804;2023-07-31T11:45:12;3.83;;;1.83;;
10711;SDS011;5407;51.234;6.804;2023-07-31T11:47:39;3.33;;;1.97;;
10711;SDS011;5407;51.234;6.804;2023-07-31T11:50:09;2.40;;;1.90;;
10711;SDS011;5407;51.234;6.804;2023-07-31T11:52:40;3.23;;;1.80;;
10711;SDS011;5407;51.234;6.804;2023-07-31T11:55:11;2.17;;;1.90;;
10711;SDS011;5407;51.234;6.804;2023-07-31T11:57:40;3.17;;;2.10;;
10711;SDS011;5407;51.234;6.804;2023-07-31T12:00:10;2.70;;;1.73;;
10711;SDS011;5407;51.234;6.804;2023-07-31T12:02:39;1.97;;;1.77;;
10711;SDS011;5407;51.234;6.804;2023-07-31T12:05:10;3.20;;;1.60;;
10711;SDS011;5407;51.234;6.804;2023-07-31T12:07:45;1.73;;;1.63;;
10711;SDS011;5407;51.234;6.804;2023-07-31T12:10:26;2.60;;;2.10;;
10711;SDS011;5407;51.234;6.804;2023-07-31T12:12:58;2.40;;;2.20;;
10711;SDS011;5407;51.234;6.804;2023-07-31T12:15:33;3.77;;;1.83;;
10711;SDS011;5407;51.234;6.804;2023-07-31T12:18:03;4.10;;;1.90;;
10711;SDS011;5407;51.234;6.804;2023-07-31T12:20:31;2.70;;;2.50;;
10711;SDS011;5407;51.234;6.804;2023-07-31T12:23:00;2.23;;;1.87;;
10711;SDS011;5407;51.234;6.804;2023-07-31T12:25:31;2.10;;;1.80;;
10711;SDS011;5407;51.234;6.804;2023-07-31T12:28:06;4.47;;;2.10;;
10711;SDS011;5407;51.234;6.804;2023-07-31T12:30:37;2.90;;;2.20;;
10711;SDS011;5407;51.234;6.804;2023-07-31T12:33:05;3.33;;;2.00;;
10711;SDS011;5407;51.234;6.804;2023-07-31T12:35:37;4.00;;;1.80;;
10711;SDS011;5407;51.234;6.804;2023-07-31T12:38:06;3.20;;;2.20;;
10711;SDS011;5407;51.234;6.804;2023-07-31T12:40:33;3.60;;;2.43;;
10711;SDS011;5407;51.234;6.804;2023-07-31T12:43:03;3.30;;;2.17;;
10711;SDS011;5407;51.234;6.804;2023-07-31T12:45:30;3.20;;;2.30;;
10711;SDS011;5407;51.234;6.804;2023-07-31T12:47:57;4.50;;;2.33;;
10711;SDS011;5407;51.234;6.804;2023-07-31T12:50:24;5.40;;;2.30;;
10711;SDS011;5407;51.234;6.804;2023-07-31T12:52:51;5.70;;;2.23;;
10711;SDS011;5407;51.234;6.804;2023-07-31T12:55:20;5.57;;;2.50;;
10711;SDS011;5407;51.234;6.804;2023-07-31T12:57:49;2.67;;;2.30;;
10711;SDS011;5407;51.234;6.804;2023-07-31T13:00:17;4.20;;;2.50;;
10711;SDS011;5407;51.234;6.804;2023-07-31T13:02:45;2.50;;;2.30;;
10711;SDS011;5407;51.234;6.804;2023-07-31T13:05:13;3.63;;;2.50;;
10711;SDS011;5407;51.234;6.804;2023-07-31T13:07:40;3.37;;;2.60;;
10711;SDS011;5407;51.234;6.804;2023-07-31T13:10:07;4.63;;;3.13;;
10711;SDS011;5407;51.234;6.804;2023-07-31T13:12:36;3.67;;;2.50;;
10711;SDS011;5407;51.234;6.804;2023-07-31T13:15:04;5.10;;;2.70;;
10711;SDS011;5407;51.234;6.804;2023-07-31T13:17:33;5.73;;;3.07;;
10711;SDS011;5407;51.234;6.804;2023-07-31T13:20:00;4.20;;;3.00;;
10711;SDS011;5407;51.234;6.804;2023-07-31T13:22:27;3.60;;;2.90;;
10711;SDS011;5407;51.234;6.804;2023-07-31T13:24:54;4.07;;;2.93;;
10711;SDS011;5407;51.234;6.804;2023-07-31T13:27:21;3.93;;;2.73;;
10711;SDS011;5407;51.234;6.804;2023-07-31T13:29:51;4.27;;;2.97;;
10711;SDS011;5407;51.234;6.804;2023-07-31T13:32:18;6.93;;;3.20;;
10711;SDS011;5407;51.234;6.804;2023-07-31T13:34:46;5.20;;;3.07;;
10711;SDS011;5407;51.234;6.804;2023-07-31T13:37:14;4.67;;;3.00;;
10711;SDS011;5407;51.234;6.804;2023-07-31T13:39:41;4.63;;;2.90;;
10711;SDS011;5407;51.234;6.804;2023-07-31T13:42:08;4.93;;;2.65;;
10711;SDS011;5407;51.234;6.804;2023-07-31T13:44:37;6.83;;;3.30;;
10711;SDS011;5407;51.234;6.804;2023-07-31T13:47:06;4.73;;;2.73;;
10711;SDS011;5407;51.234;6.804;2023-07-31T13:49:33;4.60;;;3.10;;
10711;SDS011;5407;51.234;6.804;2023-07-31T13:52:00;4.97;;;3.10;;
10711;SDS011;5407;51.234;6.804;2023-07-31T13:54:28;5.93;;;3.00;;
10711;SDS011;5407;51.234;6.804;2023-07-31T13:56:54;4.18;;;2.95;;
10711;SDS011;5407;51.234;6.804;2023-07-31T13:59:22;5.17;;;3.30;;
10711;SDS011;5407;51.234;6.804;2023-07-31T14:01:49;6.33;;;2.97;;
10711;SDS011;5407;51.234;6.804;2023-07-31T14:04:18;4.53;;;2.80;;
10711;SDS011;5407;51.234;6.804;2023-07-31T14:06:44;4.53;;;3.17;;
10711;SDS011;5407;51.234;6.804;2023-07-31T14:09:13;4.90;;;3.50;;
10711;SDS011;5407;51.234;6.804;2023-07-31T14:11:40;4.73;;;2.93;;
10711;SDS011;5407;51.234;6.804;2023-07-31T14:14:08;4.60;;;3.00;;
10711;SDS011;5407;51.234;6.804;2023-07-31T14:16:35;4.80;;;4.03;;
10711;SDS011;5407;51.234;6.804;2023-07-31T14:19:02;6.30;;;2.87;;
10711;SDS011;5407;51.234;6.804;2023-07-31T14:21:30;5.33;;;3.23;;
10711;SDS011;5407;51.234;6.804;2023-07-31T14:23:58;4.18;;;3.08;;
10711;SDS011;5407;51.234;6.804;2023-07-31T14:26:24;4.63;;;3.30;;
10711;SDS011;5407;51.234;6.804;2023-07-31T14:28:51;5.30;;;3.23;;
10711;SDS011;5407;51.234;6.804;2023-07-31T14:31:18;4.50;;;3.00;;
10711;SDS011;5407;51.234;6.804;2023-07-31T14:33:45;4.03;;;2.70;;
10711;SDS011;5407;51.234;6.804;2023-07-31T14:36:12;5.97;;;3.17;;
10711;SDS011;5407;51.234;6.804;2023-07-31T14:38:40;4.27;;;3.20;;
10711;SDS011;5407;51.234;6.804;2023-07-31T14:41:09;7.53;;;2.90;;
10711;SDS011;5407;51.234;6.804;2023-07-31T14:43:36;4.10;;;2.90;;
10711;SDS011;5407;51.234;6.804;2023-07-31T14:46:04;4.43;;;3.30;;
10711;SDS011;5407;51.234;6.804;2023-07-31T14:48:31;4.73;;;3.10;;
10711;SDS011;5407;51.234;6.804;2023-07-31T14:50:58;5.30;;;3.30;;
10711;SDS011;5407;51.234;6.804;2023-07-31T14:53:25;3.87;;;3.20;;
10711;SDS011;5407;51.234;6.804;2023-07-31T14:55:53;6.20;;;3.60;;
10711;SDS011;5407;51.234;6.804;2023-07-31T14:58:20;7.00;;;4.00;;
10711;SDS011;5407;51.234;6.804;2023-07-31T15:00:47;7.20;;;4.00;;
10711;SDS011;5407;51.234;6.804;2023-07-31T15:03:14;9.00;;;3.93;;